sensor_id;sensor_type;location;lat;lon;timestamp;P1;durP1;ratioP1;P2;durP2;ratioP2
77262;SDS011;66373;52.334;4.806;2023-04-30T00:02:21;2.47;;;2.25;;
77262;SDS011;66373;52.334;4.806;2023-04-30T00:04:48;2.72;;;2.53;;
77262;SDS011;66373;52.334;4.806;2023-04-30T00:07:15;3.30;;;2.80;;
77262;SDS011;66373;52.334;4.806;2023-04-30T00:09:42;3.08;;;2.53;;
77262;SDS011;66373;52.334;4.806;2023-04-30T00:12:09;2.50;;;2.30;;
77262;SDS011;66373;52.334;4.806;2023-04-30T00:14:36;2.45;;;2.25;;
77262;SDS011;66373;52.334;4.806;2023-04-30T00:17:04;4.30;;;2.50;;
77262;SDS011;66373;52.334;4.806;2023-04-30T00:19:31;2.30;;;2.10;;
77262;SDS011;66373;52.334;4.806;2023-04-30T00:21:59;2.72;;;2.50;;
77262;SDS011;66373;52.334;4.806;2023-04-30T00:24:26;2.78;;;2.50;;
77262;SDS011;66373;52.334;4.806;2023-04-30T00:26:54;2.30;;;2.13;;
77262;SDS011;66373;52.334;4.806;2023-04-30T00:29:21;2.85;;;2.47;;
77262;SDS011;66373;52.334;4.806;2023-04-30T00:31:48;2.75;;;2.50;;
77262;SDS011;66373;52.334;4.806;2023-04-30T00:34:16;2.40;;;2.20;;
77262;SDS011;66373;52.334;4.806;2023-04-30T00:36:43;2.85;;;2.58;;
77262;SDS011;66373;52.334;4.806;2023-04-30T00:39:10;3.20;;;2.35;;
77262;SDS011;66373;52.334;4.806;2023-04-30T00:41:37;2.58;;;2.35;;
77262;SDS011;66373;52.334;4.806;2023-04-30T00:44:07;2.97;;;2.30;;
77262;SDS011;66373;52.334;4.806;2023-04-30T00:46:34;2.40;;;2.20;;
77262;SDS011;66373;52.334;4.806;2023-04-30T00:49:02;2.50;;;2.20;;
77262;SDS011;66373;52.334;4.806;2023-04-30T00:51:31;2.63;;;2.42;;
77262;SDS011;66373;52.334;4.806;2023-04-30T00:53:59;3.47;;;2.38;;
77262;SDS011;66373;52.334;4.806;2023-04-30T00:56:27;3.38;;;2.70;;
77262;SDS011;66373;52.334;4.806;2023-04-30T00:58:55;2.80;;;2.60;;
77262;SDS011;66373;52.334;4.806;2023-04-30T01:01:22;2.67;;;2.47;;
77262;SDS011;66373;52.334;4.806;2023-04-30T01:03:53;3.60;;;2.78;;
77262;SDS011;66373;52.334;4.806;2023-04-30T01:06:20;3.80;;;2.22;;
77262;SDS011;66373;52.334;4.806;2023-04-30T01:08:49;2.30;;;2.20;;
77262;SDS011;66373;52.334;4.806;2023-04-30T01:11:20;3.55;;;2.50;;
77262;SDS011;66373;52.334;4.806;2023-04-30T01:13:57;3.00;;;2.20;;
77262;SDS011;66373;52.334;4.806;2023-04-30T01:16:35;3.15;;;2.72;;
77262;SDS011;66373;52.334;4.806;2023-04-30T01:19:09;3.55;;;2.55;;
77262;SDS011;66373;52.334;4.806;2023-04-30T01:21:51;2.40;;;2.30;;
77262;SDS011;66373;52.334;4.806;2023-04-30T01:24:31;2.53;;;2.30;;
77262;SDS011;66373;52.334;4.806;2023-04-30T01:27:14;2.60;;;2.40;;
77262;SDS011;66373;52.334;4.806;2023-04-30T01:29:52;2.55;;;2.35;;
77262;SDS011;66373;52.334;4.806;2023-04-30T01:32:20;3.17;;;2.60;;
77262;SDS011;66373;52.334;4.806;2023-04-30T01:34:48;2.60;;;2.40;;
77262;SDS011;66373;52.334;4.806;2023-04-30T01:37:18;3.75;;;2.60;;
77262;SDS011;66373;52.334;4.806;2023-04-30T01:39:56;2.88;;;2.60;;
77262;SDS011;66373;52.334;4.806;2023-04-30T01:42:35;5.07;;;2.47;;
77262;SDS011;66373;52.334;4.806;2023-04-30T01:45:12;2.38;;;2.28;;
77262;SDS011;66373;52.334;4.806;2023-04-30T01:47:51;2.72;;;2.50;;
77262;SDS011;66373;52.334;4.806;2023-04-30T01:50:24;2.78;;;2.42;;
77262;SDS011;66373;52.334;4.806;2023-04-30T01:52:58;2.58;;;2.38;;
77262;SDS011;66373;52.334;4.806;2023-04-30T01:55:29;2.53;;;2.33;;
77262;SDS011;66373;52.334;4.806;2023-04-30T01:58:04;3.92;;;2.58;;
77262;SDS011;66373;52.334;4.806;2023-04-30T02:00:34;4.00;;;2.50;;
77262;SDS011;66373;52.334;4.806;2023-04-30T02:03:01;2.95;;;2.25;;
77262;SDS011;66373;52.334;4.806;2023-04-30T02:05:29;3.65;;;2.78;;
77262;SDS011;66373;52.334;4.806;2023-04-30T02:07:55;2.67;;;2.50;;
77262;SDS011;66373;52.334;4.806;2023-04-30T02:10:23;3.25;;;2.60;;
77262;SDS011;66373;52.334;4.806;2023-04-30T02:12:51;2.63;;;2.40;;
77262;SDS011;66373;52.334;4.806;2023-04-30T02:15:19;2.70;;;2.50;;
77262;SDS011;66373;52.334;4.806;2023-04-30T02:17:47;2.42;;;2.22;;
77262;SDS011;66373;52.334;4.806;2023-04-30T02:20:15;2.60;;;2.30;;
77262;SDS011;66373;52.334;4.806;2023-04-30T02:22:42;3.05;;;2.47;;
77262;SDS011;66373;52.334;4.806;2023-04-30T02:25:09;3.33;;;2.83;;
77262;SDS011;66373;52.334;4.806;2023-04-30T02:27:37;2.75;;;2.55;;
77262;SDS011;66373;52.334;4.806;2023-04-30T02:30:04;3.00;;;2.30;;
77262;SDS011;66373;52.334;4.806;2023-04-30T02:32:32;2.50;;;2.30;;
77262;SDS011;66373;52.334;4.806;2023-04-30T02:35:01;3.20;;;2.90;;
77262;SDS011;66373;52.334;4.806;2023-04-30T02:37:29;3.00;;;2.80;;
77262;SDS011;66373;52.334;4.806;2023-04-30T02:39:56;3.33;;;2.05;;
77262;SDS011;66373;52.334;4.806;2023-04-30T02:42:24;3.20;;;2.90;;
77262;SDS011;66373;52.334;4.806;2023-04-30T02:44:51;4.93;;;2.75;;
77262;SDS011;66373;52.334;4.806;2023-04-30T02:47:18;2.78;;;2.55;;
77262;SDS011;66373;52.334;4.806;2023-04-30T02:49:45;2.70;;;2.50;;
77262;SDS011;66373;52.334;4.806;2023-04-30T02:52:13;3.45;;;2.50;;
77262;SDS011;66373;52.334;4.806;2023-04-30T02:54:40;2.88;;;2.58;;
77262;SDS011;66373;52.334;4.806;2023-04-30T02:57:08;3.80;;;2.70;;
77262;SDS011;66373;52.334;4.806;2023-04-30T02:59:35;3.00;;;2.80;;
77262;SDS011;66373;52.334;4.806;2023-04-30T03:02:03;3.40;;;2.60;;
77262;SDS011;66373;52.334;4.806;2023-04-30T03:04:30;3.05;;;2.75;;
77262;SDS011;66373;52.334;4.806;2023-04-30T03:06:57;2.92;;;2.72;;
77262;SDS011;66373;52.334;4.806;2023-04-30T03:09:26;2.83;;;2.58;;
77262;SDS011;66373;52.334;4.806;2023-04-30T03:11:53;2.83;;;2.63;;
77262;SDS011;66373;52.334;4.806;2023-04-30T03:14:20;2.90;;;2.70;;
77262;SDS011;66373;52.334;4.806;2023-04-30T03:16:47;2.58;;;2.33;;
77262;SDS011;66373;52.334;4.806;2023-04-30T03:19:15;3.00;;;2.80;;
77262;SDS011;66373;52.334;4.806;2023-04-30T03:21:41;3.40;;;3.10;;
77262;SDS011;66373;52.334;4.806;2023-04-30T03:24:09;3.05;;;2.78;;
77262;SDS011;66373;52.334;4.806;2023-04-30T03:26:37;3.10;;;2.80;;
77262;SDS011;66373;52.334;4.806;2023-04-30T03:29:04;3.83;;;2.65;;
77262;SDS011;66373;52.334;4.806;2023-04-30T03:31:31;3.15;;;2.90;;
77262;SDS011;66373;52.334;4.806;2023-04-30T03:33:58;2.28;;;2.17;;
77262;SDS011;66373;52.334;4.806;2023-04-30T03:36:25;3.65;;;2.75;;
77262;SDS011;66373;52.334;4.806;2023-04-30T03:38:53;3.13;;;2.83;;
77262;SDS011;66373;52.334;4.806;2023-04-30T03:41:20;2.63;;;2.42;;
77262;SDS011;66373;52.334;4.806;2023-04-30T03:43:50;2.75;;;2.50;;
77262;SDS011;66373;52.334;4.806;2023-04-30T03:46:17;3.10;;;2.80;;
77262;SDS011;66373;52.334;4.806;2023-04-30T03:48:44;3.00;;;2.78;;
77262;SDS011;66373;52.334;4.806;2023-04-30T03:51:11;2.85;;;2.60;;
77262;SDS011;66373;52.334;4.806;2023-04-30T03:53:39;2.97;;;2.50;;
77262;SDS011;66373;52.334;4.806;2023-04-30T03:56:06;3.03;;;2.60;;
77262;SDS011;66373;52.334;4.806;2023-04-30T03:58:33;3.38;;;2.67;;
77262;SDS011;66373;52.334;4.806;2023-04-30T04:01:02;3.05;;;2.75;;
77262;SDS011;66373;52.334;4.806;2023-04-30T04:03:29;2.92;;;2.63;;
77262;SDS011;66373;52.334;4.806;2023-04-30T04:05:57;2.58;;;2.38;;
77262;SDS011;66373;52.334;4.806;2023-04-30T04:08:24;2.55;;;2.38;;
77262;SDS011;66373;52.334;4.806;2023-04-30T04:10:51;2.67;;;2.47;;
77262;SDS011;66373;52.334;4.806;2023-04-30T04:13:18;3.47;;;2.60;;
77262;SDS011;66373;52.334;4.806;2023-04-30T04:15:45;2.70;;;2.47;;
77262;SDS011;66373;52.334;4.806;2023-04-30T04:18:14;2.70;;;2.50;;
77262;SDS011;66373;52.334;4.806;2023-04-30T04:20:41;2.92;;;2.70;;
77262;SDS011;66373;52.334;4.806;2023-04-30T04:23:08;2.60;;;2.40;;
77262;SDS011;66373;52.334;4.806;2023-04-30T04:25:35;3.25;;;2.53;;
77262;SDS011;66373;52.334;4.806;2023-04-30T04:28:03;3.13;;;2.60;;
77262;SDS011;66373;52.334;4.806;2023-04-30T04:30:30;2.70;;;2.50;;
77262;SDS011;66373;52.334;4.806;2023-04-30T04:32:58;4.13;;;2.58;;
77262;SDS011;66373;52.334;4.806;2023-04-30T04:35:26;3.03;;;2.75;;
77262;SDS011;66373;52.334;4.806;2023-04-30T04:37:53;3.05;;;2.67;;
77262;SDS011;66373;52.334;4.806;2023-04-30T04:40:21;2.65;;;2.45;;
77262;SDS011;66373;52.334;4.806;2023-04-30T04:42:48;2.92;;;2.72;;
77262;SDS011;66373;52.334;4.806;2023-04-30T04:45:16;2.75;;;2.55;;
77262;SDS011;66373;52.334;4.806;2023-04-30T04:47:45;2.58;;;2.35;;
77262;SDS011;66373;52.334;4.806;2023-04-30T04:50:13;2.80;;;2.60;;
77262;SDS011;66373;52.334;4.806;2023-04-30T04:52:42;2.40;;;2.25;;
77262;SDS011;66373;52.334;4.806;2023-04-30T04:55:09;2.65;;;2.42;;
77262;SDS011;66373;52.334;4.806;2023-04-30T04:57:38;3.17;;;2.58;;
77262;SDS011;66373;52.334;4.806;2023-04-30T05:00:06;2.50;;;2.30;;
77262;SDS011;66373;52.334;4.806;2023-04-30T05:02:36;3.97;;;2.47;;
77262;SDS011;66373;52.334;4.806;2023-04-30T05:05:03;2.58;;;2.38;;
77262;SDS011;66373;52.334;4.806;2023-04-30T05:07:31;5.28;;;2.67;;
77262;SDS011;66373;52.334;4.806;2023-04-30T05:10:00;2.50;;;2.30;;
77262;SDS011;66373;52.334;4.806;2023-04-30T05:12:29;3.20;;;2.53;;
77262;SDS011;66373;52.334;4.806;2023-04-30T05:14:56;2.47;;;2.28;;
77262;SDS011;66373;52.334;4.806;2023-04-30T05:17:23;2.53;;;2.22;;
77262;SDS011;66373;52.334;4.806;2023-04-30T05:19:51;3.00;;;2.35;;
77262;SDS011;66373;52.334;4.806;2023-04-30T05:22:18;2.70;;;2.50;;
77262;SDS011;66373;52.334;4.806;2023-04-30T05:24:45;2.60;;;2.40;;
77262;SDS011;66373;52.334;4.806;2023-04-30T05:27:14;2.55;;;2.38;;
77262;SDS011;66373;52.334;4.806;2023-04-30T05:29:41;2.60;;;2.40;;
77262;SDS011;66373;52.334;4.806;2023-04-30T05:32:08;2.60;;;2.40;;
77262;SDS011;66373;52.334;4.806;2023-04-30T05:34:36;2.60;;;2.40;;
77262;SDS011;66373;52.334;4.806;2023-04-30T05:37:02;2.70;;;2.50;;
77262;SDS011;66373;52.334;4.806;2023-04-30T05:39:29;2.42;;;2.22;;
77262;SDS011;66373;52.334;4.806;2023-04-30T05:41:56;2.95;;;2.40;;
77262;SDS011;66373;52.334;4.806;2023-04-30T05:44:25;3.35;;;2.42;;
77262;SDS011;66373;52.334;4.806;2023-04-30T05:46:54;2.25;;;2.08;;
77262;SDS011;66373;52.334;4.806;2023-04-30T05:49:21;2.50;;;2.30;;
77262;SDS011;66373;52.334;4.806;2023-04-30T05:51:48;2.22;;;2.13;;
77262;SDS011;66373;52.334;4.806;2023-04-30T05:54:15;2.40;;;2.20;;
77262;SDS011;66373;52.334;4.806;2023-04-30T05:56:42;2.10;;;2.00;;
77262;SDS011;66373;52.334;4.806;2023-04-30T05:59:12;2.42;;;2.22;;
77262;SDS011;66373;52.334;4.806;2023-04-30T06:01:41;2.42;;;2.28;;
77262;SDS011;66373;52.334;4.806;2023-04-30T06:04:08;2.30;;;2.20;;
77262;SDS011;66373;52.334;4.806;2023-04-30T06:06:36;2.50;;;2.40;;
77262;SDS011;66373;52.334;4.806;2023-04-30T06:09:03;2.58;;;2.40;;
77262;SDS011;66373;52.334;4.806;2023-04-30T06:11:30;2.38;;;2.10;;
77262;SDS011;66373;52.334;4.806;2023-04-30T06:13:58;2.50;;;2.30;;
77262;SDS011;66373;52.334;4.806;2023-04-30T06:16:25;2.70;;;2.50;;
77262;SDS011;66373;52.334;4.806;2023-04-30T06:18:54;2.60;;;2.40;;
77262;SDS011;66373;52.334;4.806;2023-04-30T06:21:21;2.30;;;2.20;;
77262;SDS011;66373;52.334;4.806;2023-04-30T06:23:50;2.60;;;2.40;;
77262;SDS011;66373;52.334;4.806;2023-04-30T06:26:17;2.20;;;2.10;;
77262;SDS011;66373;52.334;4.806;2023-04-30T06:28:45;2.33;;;2.20;;
77262;SDS011;66373;52.334;4.806;2023-04-30T06:31:12;3.20;;;2.25;;
77262;SDS011;66373;52.334;4.806;2023-04-30T06:33:39;2.30;;;2.17;;
77262;SDS011;66373;52.334;4.806;2023-04-30T06:36:08;2.00;;;1.90;;
77262;SDS011;66373;52.334;4.806;2023-04-30T06:38:35;2.17;;;2.08;;
77262;SDS011;66373;52.334;4.806;2023-04-30T06:41:02;2.15;;;2.05;;
77262;SDS011;66373;52.334;4.806;2023-04-30T06:43:32;2.10;;;2.00;;
77262;SDS011;66373;52.334;4.806;2023-04-30T06:45:59;2.05;;;1.95;;
77262;SDS011;66373;52.334;4.806;2023-04-30T06:48:26;2.22;;;2.13;;
77262;SDS011;66373;52.334;4.806;2023-04-30T06:50:53;2.72;;;2.10;;
77262;SDS011;66373;52.334;4.806;2023-04-30T06:53:22;2.25;;;2.10;;
77262;SDS011;66373;52.334;4.806;2023-04-30T06:55:49;2.22;;;2.03;;
77262;SDS011;66373;52.334;4.806;2023-04-30T06:58:17;2.50;;;2.30;;
77262;SDS011;66373;52.334;4.806;2023-04-30T07:00:44;2.08;;;1.98;;
77262;SDS011;66373;52.334;4.806;2023-04-30T07:03:11;2.33;;;2.15;;
77262;SDS011;66373;52.334;4.806;2023-04-30T07:05:38;2.40;;;2.20;;
77262;SDS011;66373;52.334;4.806;2023-04-30T07:08:05;2.13;;;2.00;;
77262;SDS011;66373;52.334;4.806;2023-04-30T07:10:34;2.10;;;2.00;;
77262;SDS011;66373;52.334;4.806;2023-04-30T07:13:01;2.28;;;2.17;;
77262;SDS011;66373;52.334;4.806;2023-04-30T07:15:28;2.05;;;1.95;;
77262;SDS011;66373;52.334;4.806;2023-04-30T07:17:55;2.13;;;2.03;;
77262;SDS011;66373;52.334;4.806;2023-04-30T07:20:22;1.83;;;1.73;;
77262;SDS011;66373;52.334;4.806;2023-04-30T07:22:50;2.10;;;2.00;;
77262;SDS011;66373;52.334;4.806;2023-04-30T07:25:17;2.30;;;2.15;;
77262;SDS011;66373;52.334;4.806;2023-04-30T07:27:45;2.25;;;2.10;;
77262;SDS011;66373;52.334;4.806;2023-04-30T07:30:12;1.92;;;1.83;;
77262;SDS011;66373;52.334;4.806;2023-04-30T07:32:39;2.22;;;2.13;;
77262;SDS011;66373;52.334;4.806;2023-04-30T07:35:07;2.08;;;1.98;;
77262;SDS011;66373;52.334;4.806;2023-04-30T07:37:35;2.08;;;1.98;;
77262;SDS011;66373;52.334;4.806;2023-04-30T07:40:02;1.92;;;1.83;;
77262;SDS011;66373;52.334;4.806;2023-04-30T07:42:30;2.00;;;1.90;;
77262;SDS011;66373;52.334;4.806;2023-04-30T07:44:58;2.00;;;1.90;;
77262;SDS011;66373;52.334;4.806;2023-04-30T07:47:26;2.00;;;1.90;;
77262;SDS011;66373;52.334;4.806;2023-04-30T07:49:53;2.75;;;2.03;;
77262;SDS011;66373;52.334;4.806;2023-04-30T07:52:21;2.10;;;2.00;;
77262;SDS011;66373;52.334;4.806;2023-04-30T07:54:48;2.05;;;1.95;;
77262;SDS011;66373;52.334;4.806;2023-04-30T07:57:15;2.15;;;1.95;;
77262;SDS011;66373;52.334;4.806;2023-04-30T07:59:42;1.95;;;1.85;;
77262;SDS011;66373;52.334;4.806;2023-04-30T08:02:11;2.10;;;2.00;;
77262;SDS011;66373;52.334;4.806;2023-04-30T08:04:38;1.75;;;1.65;;
77262;SDS011;66373;52.334;4.806;2023-04-30T08:07:06;2.17;;;2.08;;
77262;SDS011;66373;52.334;4.806;2023-04-30T08:09:33;2.00;;;1.90;;
77262;SDS011;66373;52.334;4.806;2023-04-30T08:12:00;1.95;;;1.85;;
77262;SDS011;66373;52.334;4.806;2023-04-30T08:14:29;2.28;;;2.17;;
77262;SDS011;66373;52.334;4.806;2023-04-30T08:16:57;1.92;;;1.83;;
77262;SDS011;66373;52.334;4.806;2023-04-30T08:19:26;2.00;;;1.90;;
77262;SDS011;66373;52.334;4.806;2023-04-30T08:21:53;2.13;;;2.03;;
77262;SDS011;66373;52.334;4.806;2023-04-30T08:24:20;1.95;;;1.90;;
77262;SDS011;66373;52.334;4.806;2023-04-30T08:26:48;2.05;;;1.95;;
77262;SDS011;66373;52.334;4.806;2023-04-30T08:29:15;2.20;;;2.00;;
77262;SDS011;66373;52.334;4.806;2023-04-30T08:31:42;2.40;;;2.22;;
77262;SDS011;66373;52.334;4.806;2023-04-30T08:34:09;2.00;;;1.90;;
77262;SDS011;66373;52.334;4.806;2023-04-30T08:36:38;2.00;;;1.90;;
77262;SDS011;66373;52.334;4.806;2023-04-30T08:39:05;1.80;;;1.70;;
77262;SDS011;66373;52.334;4.806;2023-04-30T08:41:32;1.95;;;1.85;;
77262;SDS011;66373;52.334;4.806;2023-04-30T08:44:00;1.60;;;1.60;;
77262;SDS011;66373;52.334;4.806;2023-04-30T08:46:28;1.80;;;1.70;;
77262;SDS011;66373;52.334;4.806;2023-04-30T08:48:57;1.80;;;1.73;;
77262;SDS011;66373;52.334;4.806;2023-04-30T08:51:25;1.75;;;1.67;;
77262;SDS011;66373;52.334;4.806;2023-04-30T08:53:54;3.42;;;1.92;;
77262;SDS011;66373;52.334;4.806;2023-04-30T08:56:23;1.88;;;1.77;;
77262;SDS011;66373;52.334;4.806;2023-04-30T08:58:51;1.83;;;1.73;;
77262;SDS011;66373;52.334;4.806;2023-04-30T09:01:25;2.08;;;1.98;;
77262;SDS011;66373;52.334;4.806;2023-04-30T09:03:53;3.03;;;1.88;;
77262;SDS011;66373;52.334;4.806;2023-04-30T09:06:20;1.90;;;1.80;;
77262;SDS011;66373;52.334;4.806;2023-04-30T09:08:48;2.03;;;1.83;;
77262;SDS011;66373;52.334;4.806;2023-04-30T09:11:21;2.03;;;1.83;;
77262;SDS011;66373;52.334;4.806;2023-04-30T09:13:50;1.88;;;1.45;;
77262;SDS011;66373;52.334;4.806;2023-04-30T09:16:19;1.70;;;1.60;;
77262;SDS011;66373;52.334;4.806;2023-04-30T09:18:47;2.33;;;1.73;;
77262;SDS011;66373;52.334;4.806;2023-04-30T09:21:14;1.85;;;1.75;;
77262;SDS011;66373;52.334;4.806;2023-04-30T09:23:54;1.95;;;1.85;;
77262;SDS011;66373;52.334;4.806;2023-04-30T09:26:26;1.77;;;1.63;;
77262;SDS011;66373;52.334;4.806;2023-04-30T09:28:57;1.70;;;1.60;;
77262;SDS011;66373;52.334;4.806;2023-04-30T09:31:25;1.83;;;1.73;;
77262;SDS011;66373;52.334;4.806;2023-04-30T09:33:52;1.90;;;1.80;;
77262;SDS011;66373;52.334;4.806;2023-04-30T09:36:19;1.80;;;1.70;;
77262;SDS011;66373;52.334;4.806;2023-04-30T09:38:47;1.98;;;1.83;;
77262;SDS011;66373;52.334;4.806;2023-04-30T09:41:20;1.73;;;1.65;;
77262;SDS011;66373;52.334;4.806;2023-04-30T09:43:50;1.70;;;1.60;;
77262;SDS011;66373;52.334;4.806;2023-04-30T09:46:17;1.50;;;1.50;;
77262;SDS011;66373;52.334;4.806;2023-04-30T09:48:45;1.73;;;1.63;;
77262;SDS011;66373;52.334;4.806;2023-04-30T09:51:13;1.58;;;1.50;;
77262;SDS011;66373;52.334;4.806;2023-04-30T09:53:41;1.90;;;1.80;;
77262;SDS011;66373;52.334;4.806;2023-04-30T09:56:10;1.88;;;1.73;;
77262;SDS011;66373;52.334;4.806;2023-04-30T09:58:40;4.13;;;1.85;;
77262;SDS011;66373;52.334;4.806;2023-04-30T10:01:17;1.65;;;1.60;;
77262;SDS011;66373;52.334;4.806;2023-04-30T10:03:45;1.60;;;1.50;;
77262;SDS011;66373;52.334;4.806;2023-04-30T10:06:13;1.70;;;1.60;;
77262;SDS011;66373;52.334;4.806;2023-04-30T10:08:43;1.60;;;1.50;;
77262;SDS011;66373;52.334;4.806;2023-04-30T10:11:14;2.53;;;1.77;;
77262;SDS011;66373;52.334;4.806;2023-04-30T10:13:50;1.85;;;1.60;;
77262;SDS011;66373;52.334;4.806;2023-04-30T10:16:38;1.73;;;1.63;;
77262;SDS011;66373;52.334;4.806;2023-04-30T10:19:10;3.03;;;1.88;;
77262;SDS011;66373;52.334;4.806;2023-04-30T10:24:08;1.88;;;1.77;;
77262;SDS011;66373;52.334;4.806;2023-04-30T10:26:36;1.95;;;1.85;;
77262;SDS011;66373;52.334;4.806;2023-04-30T10:29:04;2.63;;;1.80;;
77262;SDS011;66373;52.334;4.806;2023-04-30T10:31:33;1.77;;;1.67;;
77262;SDS011;66373;52.334;4.806;2023-04-30T10:34:05;1.42;;;1.42;;
77262;SDS011;66373;52.334;4.806;2023-04-30T10:36:41;1.85;;;1.73;;
77262;SDS011;66373;52.334;4.806;2023-04-30T10:39:13;1.70;;;1.60;;
77262;SDS011;66373;52.334;4.806;2023-04-30T10:41:43;1.60;;;1.50;;
77262;SDS011;66373;52.334;4.806;2023-04-30T10:44:13;1.65;;;1.60;;
77262;SDS011;66373;52.334;4.806;2023-04-30T10:46:43;1.80;;;1.70;;
77262;SDS011;66373;52.334;4.806;2023-04-30T10:49:12;1.40;;;1.40;;
77262;SDS011;66373;52.334;4.806;2023-04-30T10:51:46;1.95;;;1.85;;
77262;SDS011;66373;52.334;4.806;2023-04-30T10:54:16;1.52;;;1.50;;
77262;SDS011;66373;52.334;4.806;2023-04-30T10:56:51;2.47;;;1.80;;
77262;SDS011;66373;52.334;4.806;2023-04-30T10:59:20;1.80;;;1.50;;
77262;SDS011;66373;52.334;4.806;2023-04-30T11:01:59;2.10;;;1.70;;
77262;SDS011;66373;52.334;4.806;2023-04-30T11:04:27;1.50;;;1.50;;
77262;SDS011;66373;52.334;4.806;2023-04-30T11:06:59;1.65;;;1.55;;
77262;SDS011;66373;52.334;4.806;2023-04-30T11:09:36;1.65;;;1.58;;
77262;SDS011;66373;52.334;4.806;2023-04-30T11:12:09;3.33;;;1.65;;
77262;SDS011;66373;52.334;4.806;2023-04-30T11:14:41;2.40;;;1.50;;
77262;SDS011;66373;52.334;4.806;2023-04-30T11:17:12;1.67;;;1.58;;
77262;SDS011;66373;52.334;4.806;2023-04-30T11:19:48;1.58;;;1.48;;
77262;SDS011;66373;52.334;4.806;2023-04-30T11:22:18;1.50;;;1.40;;
77262;SDS011;66373;52.334;4.806;2023-04-30T11:24:51;1.35;;;1.33;;
77262;SDS011;66373;52.334;4.806;2023-04-30T11:27:20;1.80;;;1.70;;
77262;SDS011;66373;52.334;4.806;2023-04-30T11:29:49;1.50;;;1.50;;
77262;SDS011;66373;52.334;4.806;2023-04-30T11:32:19;1.70;;;1.60;;
77262;SDS011;66373;52.334;4.806;2023-04-30T11:34:48;1.60;;;1.50;;
77262;SDS011;66373;52.334;4.806;2023-04-30T11:37:17;1.45;;;1.45;;
77262;SDS011;66373;52.334;4.806;2023-04-30T11:39:47;1.60;;;1.50;;
77262;SDS011;66373;52.334;4.806;2023-04-30T11:42:16;1.85;;;1.73;;
77262;SDS011;66373;52.334;4.806;2023-04-30T11:44:43;1.80;;;1.70;;
77262;SDS011;66373;52.334;4.806;2023-04-30T11:47:11;1.55;;;1.45;;
77262;SDS011;66373;52.334;4.806;2023-04-30T11:49:41;1.70;;;1.60;;
77262;SDS011;66373;52.334;4.806;2023-04-30T11:52:08;1.40;;;1.40;;
77262;SDS011;66373;52.334;4.806;2023-04-30T11:54:38;1.58;;;1.48;;
77262;SDS011;66373;52.334;4.806;2023-04-30T11:57:05;1.65;;;1.52;;
77262;SDS011;66373;52.334;4.806;2023-04-30T11:59:38;1.50;;;1.40;;
77262;SDS011;66373;52.334;4.806;2023-04-30T12:02:06;1.40;;;1.40;;
77262;SDS011;66373;52.334;4.806;2023-04-30T12:04:33;1.50;;;1.50;;
77262;SDS011;66373;52.334;4.806;2023-04-30T12:07:06;1.83;;;1.40;;
77262;SDS011;66373;52.334;4.806;2023-04-30T12:14:52;1.40;;;1.40;;
77262;SDS011;66373;52.334;4.806;2023-04-30T12:17:29;1.70;;;1.60;;
77262;SDS011;66373;52.334;4.806;2023-04-30T12:19:57;1.40;;;1.40;;
77262;SDS011;66373;52.334;4.806;2023-04-30T12:22:26;1.55;;;1.45;;
77262;SDS011;66373;52.334;4.806;2023-04-30T12:24:54;1.40;;;1.40;;
77262;SDS011;66373;52.334;4.806;2023-04-30T12:27:23;1.70;;;1.60;;
77262;SDS011;66373;52.334;4.806;2023-04-30T12:29:50;1.50;;;1.40;;
77262;SDS011;66373;52.334;4.806;2023-04-30T12:32:19;1.77;;;1.40;;
77262;SDS011;66373;52.334;4.806;2023-04-30T12:34:48;2.20;;;1.60;;
77262;SDS011;66373;52.334;4.806;2023-04-30T12:37:16;1.50;;;1.40;;
77262;SDS011;66373;52.334;4.806;2023-04-30T12:39:45;1.50;;;1.50;;
77262;SDS011;66373;52.334;4.806;2023-04-30T12:42:16;1.48;;;1.40;;
77262;SDS011;66373;52.334;4.806;2023-04-30T12:44:45;1.20;;;1.20;;
77262;SDS011;66373;52.334;4.806;2023-04-30T12:47:12;1.67;;;1.58;;
77262;SDS011;66373;52.334;4.806;2023-04-30T12:49:40;1.60;;;1.60;;
77262;SDS011;66373;52.334;4.806;2023-04-30T12:52:11;1.67;;;1.60;;
77262;SDS011;66373;52.334;4.806;2023-04-30T12:54:39;1.50;;;1.50;;
77262;SDS011;66373;52.334;4.806;2023-04-30T12:57:09;1.50;;;1.50;;
77262;SDS011;66373;52.334;4.806;2023-04-30T12:59:38;1.48;;;1.38;;
77262;SDS011;66373;52.334;4.806;2023-04-30T13:02:21;2.20;;;1.60;;
77262;SDS011;66373;52.334;4.806;2023-04-30T13:04:49;1.55;;;1.52;;
77262;SDS011;66373;52.334;4.806;2023-04-30T13:07:17;1.92;;;1.52;;
77262;SDS011;66373;52.334;4.806;2023-04-30T13:09:44;1.40;;;1.40;;
77262;SDS011;66373;52.334;4.806;2023-04-30T13:12:13;1.67;;;1.58;;
77262;SDS011;66373;52.334;4.806;2023-04-30T13:14:40;1.60;;;1.50;;
77262;SDS011;66373;52.334;4.806;2023-04-30T13:17:07;1.50;;;1.40;;
77262;SDS011;66373;52.334;4.806;2023-04-30T13:19:36;1.60;;;1.50;;
77262;SDS011;66373;52.334;4.806;2023-04-30T13:22:03;1.50;;;1.40;;
77262;SDS011;66373;52.334;4.806;2023-04-30T13:24:30;1.45;;;1.45;;
77262;SDS011;66373;52.334;4.806;2023-04-30T13:26:58;1.40;;;1.40;;
77262;SDS011;66373;52.334;4.806;2023-04-30T13:29:28;1.40;;;1.40;;
77262;SDS011;66373;52.334;4.806;2023-04-30T13:31:56;1.45;;;1.38;;
77262;SDS011;66373;52.334;4.806;2023-04-30T13:34:23;1.60;;;1.50;;
77262;SDS011;66373;52.334;4.806;2023-04-30T13:36:50;2.15;;;1.50;;
77262;SDS011;66373;52.334;4.806;2023-04-30T13:39:17;1.50;;;1.40;;
77262;SDS011;66373;52.334;4.806;2023-04-30T13:41:46;1.40;;;1.40;;
77262;SDS011;66373;52.334;4.806;2023-04-30T13:44:14;1.50;;;1.40;;
77262;SDS011;66373;52.334;4.806;2023-04-30T13:46:44;1.38;;;1.38;;
77262;SDS011;66373;52.334;4.806;2023-04-30T13:49:11;1.42;;;1.40;;
77262;SDS011;66373;52.334;4.806;2023-04-30T13:51:38;1.60;;;1.50;;
77262;SDS011;66373;52.334;4.806;2023-04-30T13:54:06;1.55;;;1.50;;
77262;SDS011;66373;52.334;4.806;2023-04-30T13:56:33;1.48;;;1.48;;
77262;SDS011;66373;52.334;4.806;2023-04-30T13:59:00;1.50;;;1.27;;
77262;SDS011;66373;52.334;4.806;2023-04-30T14:01:27;1.63;;;1.52;;
77262;SDS011;66373;52.334;4.806;2023-04-30T14:03:57;1.30;;;1.30;;
77262;SDS011;66373;52.334;4.806;2023-04-30T14:06:24;1.63;;;1.60;;
77262;SDS011;66373;52.334;4.806;2023-04-30T14:08:51;1.40;;;1.30;;
77262;SDS011;66373;52.334;4.806;2023-04-30T14:11:18;1.30;;;1.30;;
77262;SDS011;66373;52.334;4.806;2023-04-30T14:13:45;1.30;;;1.30;;
77262;SDS011;66373;52.334;4.806;2023-04-30T14:16:13;1.20;;;1.20;;
77262;SDS011;66373;52.334;4.806;2023-04-30T14:18:40;1.50;;;1.40;;
77262;SDS011;66373;52.334;4.806;2023-04-30T14:21:09;1.50;;;1.40;;
77262;SDS011;66373;52.334;4.806;2023-04-30T14:23:37;1.38;;;1.38;;
77262;SDS011;66373;52.334;4.806;2023-04-30T14:26:05;1.38;;;1.30;;
77262;SDS011;66373;52.334;4.806;2023-04-30T14:28:33;1.20;;;1.20;;
77262;SDS011;66373;52.334;4.806;2023-04-30T14:31:00;1.38;;;1.35;;
77262;SDS011;66373;52.334;4.806;2023-04-30T14:33:27;1.25;;;1.25;;
77262;SDS011;66373;52.334;4.806;2023-04-30T14:35:55;1.40;;;1.40;;
77262;SDS011;66373;52.334;4.806;2023-04-30T14:38:25;1.27;;;1.27;;
77262;SDS011;66373;52.334;4.806;2023-04-30T14:40:52;1.50;;;1.30;;
77262;SDS011;66373;52.334;4.806;2023-04-30T14:43:20;1.55;;;1.33;;
77262;SDS011;66373;52.334;4.806;2023-04-30T14:45:47;1.30;;;1.30;;
77262;SDS011;66373;52.334;4.806;2023-04-30T14:48:15;1.67;;;1.58;;
77262;SDS011;66373;52.334;4.806;2023-04-30T14:50:43;1.30;;;1.30;;
77262;SDS011;66373;52.334;4.806;2023-04-30T14:53:10;1.15;;;1.13;;
77262;SDS011;66373;52.334;4.806;2023-04-30T14:55:39;1.30;;;1.30;;
77262;SDS011;66373;52.334;4.806;2023-04-30T14:58:06;1.50;;;1.40;;
77262;SDS011;66373;52.334;4.806;2023-04-30T15:00:33;1.75;;;1.30;;
77262;SDS011;66373;52.334;4.806;2023-04-30T15:03:00;1.50;;;1.40;;
77262;SDS011;66373;52.334;4.806;2023-04-30T15:05:27;1.38;;;1.38;;